createdAt,value
2018-07-02T00:00:46.294Z,18.00
2018-07-02T00:03:16.264Z,18.00
2018-07-02T00:06:03.083Z,18.00
2018-07-02T00:08:32.999Z,18.00
2018-07-02T00:11:02.911Z,17.90
2018-07-02T00:13:32.849Z,17.90
2018-07-02T00:16:02.763Z,17.90
2018-07-02T00:18:32.760Z,17.80
2018-07-02T00:21:02.668Z,17.80
2018-07-02T00:23:32.600Z,17.80
2018-07-02T00:26:02.512Z,17.70
2018-07-02T00:28:32.427Z,17.70
2018-07-02T00:31:02.359Z,17.70
2018-07-02T00:33:32.316Z,17.60
2018-07-02T00:36:02.239Z,17.60
2018-07-02T00:38:32.175Z,17.60
2018-07-02T00:41:02.095Z,17.60
2018-07-02T00:43:32.107Z,17.50
2018-07-02T00:46:02.027Z,17.50
2018-07-02T00:48:31.946Z,17.50
2018-07-02T00:51:01.919Z,17.40
2018-07-02T00:53:31.835Z,17.40
2018-07-02T00:56:01.852Z,17.40
2018-07-02T00:58:31.788Z,17.30
2018-07-02T01:01:01.695Z,17.30
2018-07-02T01:03:31.612Z,17.30
2018-07-02T01:06:01.547Z,17.30
2018-07-02T01:08:31.527Z,17.30
2018-07-02T01:11:01.449Z,17.20
2018-07-02T01:13:31.382Z,17.20
2018-07-02T01:16:01.348Z,17.20
2018-07-02T01:18:31.251Z,17.20
2018-07-02T01:21:01.211Z,17.20
2018-07-02T01:23:31.136Z,17.20
2018-07-02T01:26:01.052Z,17.20
2018-07-02T01:28:30.972Z,17.20
2018-07-02T01:31:00.900Z,17.20
2018-07-02T01:33:30.807Z,17.10
2018-07-02T01:36:00.947Z,17.10
2018-07-02T01:38:30.955Z,17.10
2018-07-02T01:41:00.886Z,17.10
2018-07-02T01:43:31.235Z,17.10
2018-07-02T01:46:01.247Z,17.10
2018-07-02T01:48:31.155Z,17.00
2018-07-02T01:51:01.079Z,17.00
2018-07-02T01:53:30.979Z,17.00
2018-07-02T01:58:30.608Z,16.90
2018-07-02T02:01:00.616Z,16.90
2018-07-02T02:03:30.555Z,16.90
2018-07-02T02:06:00.474Z,16.90
2018-07-02T02:08:30.375Z,16.80
2018-07-02T02:11:00.301Z,16.70
2018-07-02T02:13:30.203Z,16.80
2018-07-02T02:16:00.120Z,16.70
2018-07-02T02:18:30.060Z,16.70
2018-07-02T02:20:59.987Z,16.70
2018-07-02T02:25:59.551Z,16.70
2018-07-02T02:28:29.464Z,16.70
2018-07-02T02:30:59.389Z,16.60
2018-07-02T02:33:29.295Z,16.60
2018-07-02T02:35:59.232Z,16.50
2018-07-02T02:38:29.230Z,16.50
2018-07-02T02:40:59.075Z,16.50
2018-07-02T02:43:28.992Z,16.40
2018-07-02T02:45:58.940Z,16.40
2018-07-02T02:48:28.938Z,16.40
2018-07-02T02:50:58.899Z,16.30
2018-07-02T02:53:28.798Z,16.30
2018-07-02T02:55:58.738Z,16.30
2018-07-02T02:58:28.628Z,16.20
2018-07-02T03:00:58.578Z,16.20
2018-07-02T03:03:28.483Z,16.20
2018-07-02T03:05:58.405Z,16.20
2018-07-02T03:08:28.307Z,16.20
2018-07-02T03:10:58.277Z,16.20
2018-07-02T03:13:28.188Z,16.20
2018-07-02T03:15:58.103Z,16.10
2018-07-02T03:18:28.021Z,16.10
2018-07-02T03:20:57.952Z,16.10
2018-07-02T03:25:57.423Z,16.10
2018-07-02T03:28:27.328Z,16.10
2018-07-02T03:30:57.244Z,16.00
2018-07-02T03:33:27.147Z,16.00
2018-07-02T03:35:57.074Z,16.00
2018-07-02T03:38:26.979Z,15.90
2018-07-02T03:40:56.947Z,15.90
2018-07-02T03:43:26.856Z,15.90
2018-07-02T03:45:56.788Z,15.90
2018-07-02T03:48:26.808Z,15.90
2018-07-02T03:50:56.727Z,15.90
2018-07-02T03:53:26.641Z,15.80
2018-07-02T03:55:56.583Z,15.80
2018-07-02T03:58:26.507Z,15.80
2018-07-02T04:00:56.495Z,15.80
2018-07-02T04:03:26.448Z,15.80
2018-07-02T04:05:56.429Z,15.80
2018-07-02T04:08:26.333Z,15.80
2018-07-02T04:10:56.259Z,15.80
2018-07-02T04:13:26.164Z,15.70
2018-07-02T04:15:56.111Z,15.70
2018-07-02T04:18:26.019Z,15.70
2018-07-02T04:20:56.021Z,15.70
2018-07-02T04:23:25.928Z,15.70
2018-07-02T04:25:55.898Z,15.70
2018-07-02T04:28:25.795Z,15.70
2018-07-02T04:30:55.734Z,15.70
2018-07-02T04:33:25.695Z,15.60
2018-07-02T04:35:55.719Z,15.60
2018-07-02T04:38:25.704Z,15.70
2018-07-02T04:40:55.644Z,15.70
2018-07-02T04:43:25.663Z,15.70
2018-07-02T04:45:55.600Z,15.60
2018-07-02T04:48:25.529Z,15.70
2018-07-02T04:50:55.485Z,15.60
2018-07-02T04:53:25.399Z,15.60
2018-07-02T04:55:55.351Z,15.60
2018-07-02T04:58:25.268Z,15.70
2018-07-02T05:00:55.245Z,15.60
2018-07-02T05:03:25.151Z,15.70
2018-07-02T05:05:55.111Z,15.70
2018-07-02T05:08:25.103Z,15.80
2018-07-02T05:10:54.977Z,15.80
2018-07-02T05:13:24.883Z,15.80
2018-07-02T05:15:54.931Z,15.80
2018-07-02T05:18:24.862Z,15.90
2018-07-02T05:20:54.787Z,16.00
2018-07-02T05:23:24.744Z,15.90
2018-07-02T05:25:54.664Z,16.00
2018-07-02T05:28:24.579Z,16.00
2018-07-02T05:30:54.540Z,16.10
2018-07-02T05:33:24.463Z,16.10
2018-07-02T05:35:54.463Z,16.20
2018-07-02T05:38:24.387Z,16.20
2018-07-02T05:40:54.432Z,16.20
2018-07-02T05:43:24.349Z,16.30
2018-07-02T05:45:54.275Z,16.40
2018-07-02T05:48:24.211Z,16.50
2018-07-02T05:50:54.137Z,16.60
2018-07-02T05:53:24.056Z,16.60
2018-07-02T05:55:53.988Z,16.80
2018-07-02T05:58:23.899Z,16.90
2018-07-02T06:00:54.005Z,17.00
2018-07-02T06:03:23.755Z,17.00
2018-07-02T06:05:53.692Z,17.10
2018-07-02T06:08:23.607Z,17.20
2018-07-02T06:10:53.544Z,17.30
2018-07-02T06:13:23.492Z,17.30
2018-07-02T06:15:53.432Z,17.50
2018-07-02T06:18:23.347Z,17.60
2018-07-02T06:20:53.275Z,17.70
2018-07-02T06:23:23.291Z,17.80
2018-07-02T06:25:53.207Z,17.90
2018-07-02T06:28:23.131Z,18.00
2018-07-02T06:30:53.244Z,18.00
2018-07-02T06:35:52.800Z,18.10
2018-07-02T06:38:22.731Z,18.20
2018-07-02T06:40:52.734Z,18.30
2018-07-02T06:43:22.664Z,18.40
2018-07-02T06:45:52.719Z,18.50
2018-07-02T06:48:22.667Z,18.60
2018-07-02T06:50:52.616Z,18.80
2018-07-02T06:53:22.546Z,18.90
2018-07-02T06:55:52.512Z,19.10
2018-07-02T06:58:22.432Z,19.40
2018-07-02T07:00:52.455Z,19.70
2018-07-02T07:03:22.395Z,20.10
2018-07-02T07:05:52.328Z,20.40
2018-07-02T07:08:22.269Z,21.00
2018-07-02T07:10:52.185Z,21.30
2018-07-02T07:13:22.139Z,22.00
2018-07-02T07:15:52.088Z,22.30
2018-07-02T07:18:22.075Z,22.40
2018-07-02T07:20:52.027Z,22.80
2018-07-02T07:23:22.004Z,22.80
2018-07-02T07:25:52.053Z,22.80
2018-07-02T07:28:21.908Z,22.80
2018-07-02T07:30:51.915Z,22.90
2018-07-02T07:33:21.848Z,23.00
2018-07-02T07:35:51.767Z,23.40
2018-07-02T07:38:21.701Z,23.40
2018-07-02T07:40:51.696Z,23.80
2018-07-02T07:43:21.807Z,24.00
2018-07-02T07:45:51.756Z,24.20
2018-07-02T07:48:21.748Z,24.10
2018-07-02T07:50:51.664Z,23.80
2018-07-02T07:53:21.636Z,24.20
2018-07-02T07:55:51.576Z,23.90
2018-07-02T07:58:21.548Z,24.00
2018-07-02T08:00:51.552Z,24.30
2018-07-02T08:03:21.756Z,24.40
2018-07-02T08:05:51.692Z,24.60
2018-07-02T08:08:21.593Z,24.50
2018-07-02T08:10:51.557Z,24.50
2018-07-02T08:13:21.616Z,24.90
2018-07-02T08:15:51.547Z,24.70
2018-07-02T08:18:21.463Z,24.40
2018-07-02T08:20:51.395Z,24.20
2018-07-02T08:23:21.355Z,24.30
2018-07-02T08:25:51.283Z,24.40
2018-07-02T08:28:21.207Z,24.40
2018-07-02T08:30:51.200Z,23.80
2018-07-02T08:33:21.308Z,23.70
2018-07-02T08:35:51.251Z,23.60
2018-07-02T08:38:21.164Z,23.50
2018-07-02T08:40:51.203Z,23.50
2018-07-02T08:43:21.360Z,23.30
2018-07-02T08:45:51.316Z,23.30
2018-07-02T08:48:21.231Z,23.50
2018-07-02T08:50:51.151Z,23.60
2018-07-02T08:53:21.128Z,23.60
2018-07-02T08:55:51.058Z,23.70
2018-07-02T08:58:21.055Z,23.50
2018-07-02T09:00:50.980Z,23.70
2018-07-02T09:05:50.472Z,23.80
2018-07-02T09:08:20.383Z,24.10
2018-07-02T09:10:50.343Z,24.30
2018-07-02T09:13:20.336Z,24.30
2018-07-02T09:15:50.259Z,24.30
2018-07-02T09:18:20.204Z,24.30
2018-07-02T09:20:50.126Z,24.40
2018-07-02T09:23:20.046Z,24.30
2018-07-02T09:28:19.556Z,24.50
2018-07-02T09:30:49.566Z,24.10
2018-07-02T09:33:19.503Z,24.10
2018-07-02T09:35:49.483Z,24.50
2018-07-02T09:38:19.380Z,24.60
2018-07-02T09:40:49.316Z,24.70
2018-07-02T09:43:19.236Z,24.90
2018-07-02T09:45:49.172Z,25.00
2018-07-02T09:48:19.103Z,24.90
2018-07-02T09:50:49.057Z,25.00
2018-07-02T09:55:48.946Z,25.30
2018-07-02T09:58:18.625Z,25.00
2018-07-02T10:00:48.551Z,25.40
2018-07-02T10:03:18.467Z,25.40
2018-07-02T10:05:48.392Z,25.60
2018-07-02T10:08:18.303Z,25.80
2018-07-02T10:10:48.243Z,25.90
2018-07-02T10:13:18.172Z,25.40
2018-07-02T10:15:48.096Z,25.20
2018-07-02T10:18:18.033Z,25.10
2018-07-02T10:20:47.971Z,25.30
2018-07-02T10:23:18.044Z,25.30
2018-07-02T10:25:48.034Z,25.70
2018-07-02T10:28:17.932Z,25.80
2018-07-02T10:30:47.905Z,25.80
2018-07-02T10:33:17.755Z,25.80
2018-07-02T10:35:47.720Z,25.70
2018-07-02T10:38:17.669Z,25.80
2018-07-02T10:40:47.604Z,25.90
2018-07-02T10:43:17.592Z,25.80
2018-07-02T10:45:47.516Z,25.80
2018-07-02T10:48:17.747Z,25.80
2018-07-02T10:50:47.668Z,26.00
2018-07-02T10:53:17.587Z,25.90
2018-07-02T10:55:47.597Z,25.90
2018-07-02T10:58:17.444Z,26.00
2018-07-02T11:00:47.418Z,26.00
2018-07-02T11:03:17.508Z,26.10
2018-07-02T11:05:47.441Z,26.30
2018-07-02T11:08:17.360Z,26.10
2018-07-02T11:10:47.325Z,26.20
2018-07-02T11:13:17.240Z,26.50
2018-07-02T11:15:47.171Z,26.40
2018-07-02T11:18:17.136Z,26.30
2018-07-02T11:20:47.223Z,26.70
2018-07-02T11:23:17.164Z,27.10
2018-07-02T11:25:47.111Z,26.80
2018-07-02T11:28:17.154Z,26.70
2018-07-02T11:30:47.088Z,26.90
2018-07-02T11:33:17.014Z,27.00
2018-07-02T11:35:47.011Z,27.00
2018-07-02T11:38:16.955Z,27.00
2018-07-02T11:40:46.968Z,27.00
2018-07-02T11:43:16.892Z,26.80
2018-07-02T11:45:46.816Z,27.00
2018-07-02T11:48:16.743Z,27.10
2018-07-02T11:50:46.667Z,27.40
2018-07-02T11:53:16.596Z,27.10
2018-07-02T11:55:46.512Z,27.30
2018-07-02T11:58:16.439Z,27.30
2018-07-02T12:00:46.526Z,27.00
2018-07-02T12:03:16.476Z,27.00
2018-07-02T12:05:46.487Z,26.90
2018-07-02T12:08:16.423Z,27.10
2018-07-02T12:10:46.364Z,27.30
2018-07-02T12:13:16.293Z,27.40
2018-07-02T12:15:46.200Z,27.70
2018-07-02T12:18:16.215Z,27.80
2018-07-02T12:20:46.131Z,28.00
2018-07-02T12:23:16.059Z,27.80
2018-07-02T12:25:45.999Z,27.70
2018-07-02T12:28:15.923Z,27.80
2018-07-02T12:30:45.991Z,28.10
2018-07-02T12:33:15.951Z,28.40
2018-07-02T12:35:45.884Z,28.30
2018-07-02T12:38:15.834Z,28.10
2018-07-02T12:40:45.762Z,28.20
2018-07-02T12:43:15.697Z,28.20
2018-07-02T12:45:45.620Z,28.40
2018-07-02T12:48:15.551Z,28.60
2018-07-02T12:50:45.463Z,28.80
2018-07-02T12:53:15.391Z,28.50
2018-07-02T12:55:45.315Z,28.50
2018-07-02T12:58:15.260Z,28.70
2018-07-02T13:00:45.180Z,28.60
2018-07-02T13:03:15.120Z,28.20
2018-07-02T13:05:45.033Z,28.20
2018-07-02T13:08:14.956Z,28.30
2018-07-02T13:10:44.880Z,28.50
2018-07-02T13:13:14.835Z,28.60
2018-07-02T13:15:44.758Z,28.70
2018-07-02T13:18:14.687Z,28.70
2018-07-02T13:20:44.697Z,28.60
2018-07-02T13:23:14.568Z,28.60
2018-07-02T13:25:44.500Z,28.40
2018-07-02T13:28:14.452Z,28.40
2018-07-02T13:30:44.493Z,28.40
2018-07-02T13:33:14.435Z,28.50
2018-07-02T13:35:44.360Z,28.70
2018-07-02T13:38:14.296Z,29.00
2018-07-02T13:40:44.268Z,28.90
2018-07-02T13:43:14.208Z,28.80
2018-07-02T13:45:44.131Z,29.10
2018-07-02T13:48:14.183Z,28.80
2018-07-02T13:50:44.099Z,28.60
2018-07-02T13:53:14.031Z,28.50
2018-07-02T13:55:43.969Z,28.60
2018-07-02T13:58:13.932Z,28.70
2018-07-02T14:00:43.868Z,28.90
2018-07-02T14:03:13.827Z,29.00
2018-07-02T14:05:43.712Z,29.00
2018-07-02T14:08:13.665Z,29.10
2018-07-02T14:10:43.573Z,29.10
2018-07-02T14:13:13.545Z,29.00
2018-07-02T14:15:43.460Z,28.60
2018-07-02T14:18:13.407Z,28.40
2018-07-02T14:20:43.339Z,28.40
2018-07-02T14:23:13.284Z,28.70
2018-07-02T14:25:43.243Z,28.80
2018-07-02T14:28:13.132Z,28.90
2018-07-02T14:30:43.913Z,28.80
2018-07-02T14:33:19.356Z,28.70
2018-07-02T14:35:49.380Z,28.60
2018-07-02T14:38:19.418Z,28.60
2018-07-02T14:40:49.419Z,29.00
2018-07-02T14:43:19.500Z,29.20
2018-07-02T14:45:49.424Z,29.30
2018-07-02T14:48:21.472Z,29.10
2018-07-02T14:50:52.447Z,29.10
2018-07-02T14:53:23.047Z,29.10
2018-07-02T14:55:54.635Z,29.10
2018-07-02T14:58:25.611Z,29.00
2018-07-02T15:00:55.583Z,28.80
2018-07-02T15:03:25.563Z,28.80
2018-07-02T15:05:55.683Z,28.90
2018-07-02T15:08:25.608Z,28.80
2018-07-02T15:10:55.535Z,29.00
2018-07-02T15:13:25.452Z,28.90
2018-07-02T15:15:55.459Z,29.00
2018-07-02T15:18:25.504Z,28.80
2018-07-02T15:20:55.423Z,28.70
2018-07-02T15:23:25.352Z,28.80
2018-07-02T15:25:55.288Z,29.00
2018-07-02T15:28:25.206Z,29.20
2018-07-02T15:30:55.129Z,29.00
2018-07-02T15:33:25.076Z,29.10
2018-07-02T15:35:55.037Z,29.10
2018-07-02T15:40:54.835Z,28.60
2018-07-02T15:43:24.765Z,28.80
2018-07-02T15:45:54.701Z,28.80
2018-07-02T15:48:24.636Z,29.00
2018-07-02T15:50:54.556Z,29.00
2018-07-02T15:53:24.472Z,29.10
2018-07-02T15:55:54.407Z,29.00
2018-07-02T15:58:24.319Z,28.80
2018-07-02T16:00:54.258Z,28.80
2018-07-02T16:03:24.205Z,28.70
2018-07-02T16:05:54.144Z,28.60
2018-07-02T16:08:24.171Z,28.90
2018-07-02T16:10:54.139Z,28.60
2018-07-02T16:13:24.067Z,28.90
2018-07-02T16:15:54.002Z,28.90
2018-07-02T16:18:23.923Z,29.10
2018-07-02T16:20:53.924Z,29.00
2018-07-02T16:23:23.861Z,28.70
2018-07-02T16:25:53.884Z,28.90
2018-07-02T16:28:23.831Z,29.00
2018-07-02T16:30:53.792Z,29.00
2018-07-02T16:33:23.722Z,28.70
2018-07-02T16:35:53.656Z,28.70
2018-07-02T16:38:23.571Z,28.60
2018-07-02T16:40:53.524Z,28.90
2018-07-02T16:43:23.449Z,29.40
2018-07-02T16:45:53.394Z,29.90
2018-07-02T16:48:23.309Z,30.50
2018-07-02T16:50:53.264Z,30.90
2018-07-02T16:53:23.244Z,31.60
2018-07-02T16:55:53.169Z,31.80
2018-07-02T16:58:23.111Z,31.50
2018-07-02T17:00:53.033Z,31.20
2018-07-02T17:03:22.957Z,31.90
2018-07-02T17:05:52.944Z,31.70
2018-07-02T17:08:22.865Z,32.10
2018-07-02T17:10:52.813Z,31.80
2018-07-02T17:13:22.759Z,31.90
2018-07-02T17:15:52.651Z,31.80
2018-07-02T17:18:22.584Z,32.00
2018-07-02T17:20:52.520Z,31.90
2018-07-02T17:23:22.563Z,31.50
2018-07-02T17:25:52.504Z,31.70
2018-07-02T17:28:22.504Z,30.80
2018-07-02T17:30:52.423Z,29.50
2018-07-02T17:33:22.352Z,28.40
2018-07-02T17:35:52.279Z,27.80
2018-07-02T17:38:22.205Z,26.90
2018-07-02T17:40:52.141Z,26.40
2018-07-02T17:43:22.091Z,26.20
2018-07-02T17:45:52.076Z,26.00
2018-07-02T17:48:21.996Z,25.70
2018-07-02T17:50:51.951Z,25.50
2018-07-02T17:53:21.863Z,25.20
2018-07-02T17:55:51.852Z,24.90
2018-07-02T17:58:21.796Z,24.70
2018-07-02T18:00:51.721Z,24.50
2018-07-02T18:03:21.619Z,24.30
2018-07-02T18:05:51.552Z,24.10
2018-07-02T18:08:21.472Z,24.00
2018-07-02T18:10:51.412Z,23.80
2018-07-02T18:13:21.337Z,23.70
2018-07-02T18:15:51.267Z,23.50
2018-07-02T18:18:21.215Z,23.40
2018-07-02T18:20:51.143Z,23.30
2018-07-02T18:25:50.644Z,23.00
2018-07-02T18:28:20.716Z,22.90
2018-07-02T18:30:50.864Z,22.80
2018-07-02T18:33:21.221Z,22.70
2018-07-02T18:35:51.150Z,22.70
2018-07-02T18:38:21.086Z,22.60
2018-07-02T18:40:51.096Z,22.40
2018-07-02T18:45:50.831Z,22.20
2018-07-02T18:48:20.748Z,22.10
2018-07-02T18:50:50.682Z,21.90
2018-07-02T18:53:20.607Z,21.70
2018-07-02T18:55:50.556Z,21.60
2018-07-02T18:58:20.492Z,21.40
2018-07-02T19:00:50.428Z,21.30
2018-07-02T19:03:20.368Z,21.20
2018-07-02T19:05:50.300Z,21.10
2018-07-02T19:08:20.243Z,21.00
2018-07-02T19:10:50.180Z,20.90
2018-07-02T19:13:20.107Z,20.70
2018-07-02T19:15:50.052Z,20.60
2018-07-02T19:18:19.979Z,20.50
2018-07-02T19:20:49.911Z,20.40
2018-07-02T19:23:19.846Z,20.30
2018-07-02T19:25:49.777Z,20.20
2018-07-02T19:28:19.701Z,20.10
2018-07-02T19:30:49.704Z,20.00
2018-07-02T19:33:19.631Z,19.90
2018-07-02T19:35:49.572Z,19.70
2018-07-02T19:38:19.500Z,19.60
2018-07-02T19:40:49.596Z,19.60
2018-07-02T19:43:19.712Z,19.50
2018-07-02T19:45:49.639Z,19.30
2018-07-02T19:48:19.629Z,19.20
2018-07-02T19:50:49.590Z,19.20
2018-07-02T19:53:19.561Z,19.00
2018-07-02T19:55:49.485Z,18.90
2018-07-02T19:58:19.438Z,18.80
2018-07-02T20:00:49.388Z,18.70
2018-07-02T20:03:19.363Z,18.70
2018-07-02T20:05:49.280Z,18.60
2018-07-02T20:08:19.196Z,18.60
2018-07-02T20:10:49.104Z,18.50
2018-07-02T20:13:19.047Z,18.50
2018-07-02T20:15:48.956Z,18.40
2018-07-02T20:18:18.946Z,18.40
2018-07-02T20:20:48.835Z,18.30
2018-07-02T20:23:18.752Z,18.20
2018-07-02T20:25:48.763Z,18.20
2018-07-02T20:28:18.685Z,18.10
2018-07-02T20:30:48.634Z,18.10
2018-07-02T20:33:18.672Z,18.10
2018-07-02T20:35:48.600Z,18.00
2018-07-02T20:38:18.543Z,17.90
2018-07-02T20:40:48.452Z,17.90
2018-07-02T20:43:18.398Z,17.90
2018-07-02T20:45:48.328Z,17.90
2018-07-02T20:48:18.231Z,17.80
2018-07-02T20:50:48.159Z,17.70
2018-07-02T20:53:18.194Z,17.70
2018-07-02T20:55:48.104Z,17.60
2018-07-02T20:58:18.036Z,17.70
2018-07-02T21:00:47.951Z,17.60
2018-07-02T21:03:17.877Z,17.70
2018-07-02T21:05:47.788Z,17.60
2018-07-02T21:08:17.744Z,17.60
2018-07-02T21:10:47.665Z,17.50
2018-07-02T21:13:17.596Z,17.50
2018-07-02T21:15:47.519Z,17.50
2018-07-02T21:18:17.455Z,17.50
2018-07-02T21:20:47.380Z,17.40
2018-07-02T21:23:17.460Z,17.40
2018-07-02T21:25:47.452Z,17.30
2018-07-02T21:28:17.377Z,17.30
2018-07-02T21:30:47.299Z,17.30
2018-07-02T21:33:17.232Z,17.30
2018-07-02T21:35:47.151Z,17.20
2018-07-02T21:38:17.081Z,17.20
2018-07-02T21:40:47.004Z,17.20
2018-07-02T21:43:16.940Z,17.10
2018-07-02T21:45:46.879Z,17.10
2018-07-02T21:48:16.830Z,17.10
2018-07-02T21:50:46.731Z,17.10
2018-07-02T21:53:16.643Z,17.10
2018-07-02T21:55:46.599Z,17.10
2018-07-02T21:58:16.562Z,17.10
2018-07-02T22:00:46.650Z,17.10
2018-07-02T22:03:16.578Z,17.10
2018-07-02T22:05:46.491Z,17.10
2018-07-02T22:08:16.416Z,17.10
2018-07-02T22:10:46.384Z,17.10
2018-07-02T22:13:16.328Z,17.20
2018-07-02T22:15:46.244Z,17.30
2018-07-02T22:18:16.219Z,17.30
2018-07-02T22:20:46.206Z,17.30
2018-07-02T22:23:16.141Z,17.30
2018-07-02T22:25:46.128Z,17.30
2018-07-02T22:28:16.068Z,17.20
2018-07-02T22:30:45.976Z,17.20
2018-07-02T22:33:15.896Z,17.10
2018-07-02T22:35:45.808Z,17.00
2018-07-02T22:38:15.729Z,16.90
2018-07-02T22:40:45.635Z,16.80
2018-07-02T22:43:15.573Z,16.80
2018-07-02T22:45:45.539Z,16.90
2018-07-02T22:48:15.537Z,17.30
2018-07-02T22:50:45.534Z,17.60
2018-07-02T22:53:15.464Z,17.50
2018-07-02T22:56:01.222Z,17.50
2018-07-02T22:58:31.136Z,17.40
2018-07-02T23:01:01.445Z,17.10
2018-07-02T23:03:31.381Z,17.00
2018-07-02T23:06:01.297Z,17.00
2018-07-02T23:08:31.231Z,17.00
2018-07-02T23:11:01.148Z,17.00
2018-07-02T23:13:31.069Z,17.00
2018-07-02T23:16:02.319Z,17.20
2018-07-02T23:18:33.232Z,17.20
2018-07-02T23:21:03.131Z,17.40
2018-07-02T23:23:34.067Z,17.70
2018-07-02T23:26:03.997Z,18.10
2018-07-02T23:28:34.012Z,18.20
2018-07-02T23:31:03.982Z,18.60
2018-07-02T23:33:33.855Z,18.30
2018-07-02T23:38:33.332Z,18.40
2018-07-02T23:41:03.315Z,18.30
2018-07-02T23:43:33.244Z,18.50
2018-07-02T23:46:03.304Z,18.50
2018-07-02T23:48:33.235Z,18.60
2018-07-02T23:51:03.147Z,18.70
2018-07-02T23:53:33.079Z,18.70
2018-07-02T23:56:03.063Z,18.70
2018-07-02T23:58:32.995Z,18.70
